Time;durP1;ratioP1;P1;durP2;ratioP2;P2;SDS_P1;SDS_P2;PMS_P1;PMS_P2;Temp;Humidity;BMP_temperature;BMP_pressure;BME280_temperature;BME280_humidity;BME280_pressure;Samples;Min_cycle;Max_cycle;Signal;HPM_P1;HPM_P2
2023/07/17 00:02:19;;;;;;;3.58;2.00;;;21.20;62.10;;;;;;5057672;28;20228;-76
2023/07/17 00:04:52;;;;;;;2.88;1.90;;;21.10;62.30;;;;;;5038828;28;20189;-76
2023/07/17 00:07:18;;;;;;;3.00;1.80;;;21.10;62.70;;;;;;5040529;28;20173;-76
2023/07/17 00:09:46;;;;;;;3.42;1.80;;;21.00;62.70;;;;;;5034560;28;20208;-76
2023/07/17 00:12:12;;;;;;;3.65;2.28;;;20.90;62.80;;;;;;5020935;28;20178;-77
2023/07/17 00:14:37;;;;;;;2.38;1.80;;;20.90;62.90;;;;;;5037965;28;20192;-73
2023/07/17 00:17:03;;;;;;;2.08;1.58;;;20.80;63.10;;;;;;5034638;28;20252;-76
2023/07/17 00:19:29;;;;;;;3.90;2.20;;;20.80;63.40;;;;;;5038190;28;20213;-75
2023/07/17 00:21:57;;;;;;;3.22;1.88;;;20.70;63.70;;;;;;5038943;28;20265;-75
2023/07/17 00:24:25;;;;;;;2.40;1.80;;;20.70;64.40;;;;;;5040693;28;20275;-76
2023/07/17 00:26:50;;;;;;;4.28;2.10;;;20.60;64.20;;;;;;5036328;28;20261;-76
2023/07/17 00:29:21;;;;;;;2.80;1.67;;;20.60;64.20;;;;;;5037985;28;20280;-76
2023/07/17 00:31:47;;;;;;;4.97;2.45;;;20.60;64.70;;;;;;5029756;28;20178;-76
2023/07/17 00:34:12;;;;;;;3.10;2.08;;;20.50;64.00;;;;;;5030991;28;20185;-76
2023/07/17 00:36:40;;;;;;;3.63;2.20;;;20.50;64.00;;;;;;5034400;28;20259;-76
2023/07/17 00:39:06;;;;;;;2.97;2.00;;;20.50;65.00;;;;;;5051067;28;20194;-76
2023/07/17 00:41:34;;;;;;;2.00;1.80;;;20.50;64.30;;;;;;5038007;28;20211;-75
2023/07/17 00:44:03;;;;;;;4.53;1.92;;;20.40;64.20;;;;;;5035785;28;20174;-75
2023/07/17 00:46:32;;;;;;;2.60;1.75;;;20.40;64.50;;;;;;5035539;28;20166;-76
2023/07/17 00:48:58;;;;;;;4.75;2.40;;;20.40;64.30;;;;;;5066065;22;20217;-71
2023/07/17 00:51:26;;;;;;;4.57;2.08;;;20.40;64.60;;;;;;5032543;28;20184;-76
2023/07/17 00:53:53;;;;;;;4.28;2.40;;;20.40;65.00;;;;;;5034782;28;20174;-76
2023/07/17 00:56:21;;;;;;;3.08;1.95;;;20.40;65.00;;;;;;5038678;28;20280;-73
2023/07/17 00:58:47;;;;;;;2.30;1.70;;;20.40;65.10;;;;;;5039414;28;20288;-76
2023/07/17 01:01:12;;;;;;;2.97;2.17;;;20.40;65.00;;;;;;5039487;28;20256;-77
2023/07/17 01:03:39;;;;;;;3.80;1.90;;;20.40;65.20;;;;;;5031105;28;20197;-74
2023/07/17 01:06:04;;;;;;;3.03;1.67;;;20.50;65.40;;;;;;5036198;28;20174;-76
2023/07/17 01:08:31;;;;;;;3.03;1.92;;;20.50;65.40;;;;;;5034514;28;20188;-75
2023/07/17 01:11:01;;;;;;;2.85;1.90;;;20.50;65.60;;;;;;5021560;28;20210;-76
2023/07/17 01:13:27;;;;;;;3.28;1.88;;;20.50;65.90;;;;;;5033973;28;20262;-75
2023/07/17 01:15:53;;;;;;;4.50;2.00;;;20.50;65.80;;;;;;5039148;28;20224;-72
2023/07/17 01:18:18;;;;;;;3.88;2.28;;;20.50;65.80;;;;;;5039465;28;20180;-76
2023/07/17 01:20:47;;;;;;;4.72;2.05;;;20.50;65.90;;;;;;5028853;28;20267;-75
2023/07/17 01:23:13;;;;;;;3.17;2.08;;;20.60;66.50;;;;;;5035689;28;20196;-77
2023/07/17 01:25:38;;;;;;;3.72;2.13;;;20.50;66.60;;;;;;5023608;28;20177;-75
2023/07/17 01:28:06;;;;;;;2.42;1.80;;;20.50;67.00;;;;;;5038415;28;20177;-76
2023/07/17 01:30:34;;;;;;;2.67;1.95;;;20.50;67.20;;;;;;5035332;28;20215;-73
2023/07/17 01:32:59;;;;;;;2.97;1.95;;;20.50;67.50;;;;;;5029688;28;20182;-75
2023/07/17 01:35:27;;;;;;;3.20;1.90;;;20.50;67.80;;;;;;5038654;28;20242;-76
2023/07/17 01:37:55;;;;;;;2.53;1.65;;;20.50;68.10;;;;;;5036529;28;20513;-72
2023/07/17 01:40:20;;;;;;;3.22;1.80;;;20.50;68.40;;;;;;5035132;28;20221;-75
2023/07/17 01:42:48;;;;;;;3.65;1.60;;;20.50;69.40;;;;;;5050217;28;20186;-76
2023/07/17 01:45:14;;;;;;;2.42;1.70;;;20.50;69.00;;;;;;5034568;28;20165;-77
2023/07/17 01:47:42;;;;;;;2.45;1.60;;;20.50;69.40;;;;;;5036989;28;20241;-76
2023/07/17 01:50:08;;;;;;;2.25;1.50;;;20.60;70.30;;;;;;5038751;28;20220;-76
2023/07/17 01:52:34;;;;;;;2.38;1.45;;;20.60;70.00;;;;;;5035224;28;20414;-76
2023/07/17 01:54:59;;;;;;;3.10;1.70;;;20.60;70.20;;;;;;5034900;28;20181;-72
2023/07/17 01:57:27;;;;;;;2.20;1.60;;;20.50;70.30;;;;;;5025026;28;20196;-72
2023/07/17 01:59:53;;;;;;;2.58;1.65;;;20.50;70.60;;;;;;5037878;28;20284;-76
2023/07/17 02:02:18;;;;;;;3.70;1.35;;;20.50;70.80;;;;;;5037872;28;20260;-70
2023/07/17 02:04:44;;;;;;;2.47;1.38;;;20.50;71.40;;;;;;5030104;28;20189;-76
2023/07/17 02:07:12;;;;;;;2.33;1.35;;;20.50;71.70;;;;;;5034875;28;20178;-77
2023/07/17 02:09:37;;;;;;;2.22;1.48;;;20.40;71.90;;;;;;5030314;28;20286;-74
2023/07/17 02:12:06;;;;;;;3.33;1.70;;;20.40;72.20;;;;;;5032150;28;20264;-76
2023/07/17 02:14:32;;;;;;;2.10;1.60;;;20.40;72.60;;;;;;5035817;28;20188;-73
2023/07/17 02:16:58;;;;;;;2.55;1.88;;;20.30;72.80;;;;;;5031454;28;20202;-71
2023/07/17 02:19:27;;;;;;;3.38;1.95;;;20.30;73.30;;;;;;5029220;28;20293;-76
2023/07/17 02:21:53;;;;;;;3.40;1.80;;;20.20;74.30;;;;;;5030072;28;20181;-75
2023/07/17 02:24:19;;;;;;;3.30;1.67;;;20.20;74.00;;;;;;5050289;28;20184;-74
2023/07/17 02:26:47;;;;;;;3.92;1.70;;;20.10;74.30;;;;;;5037931;28;20177;-76
2023/07/17 02:29:13;;;;;;;3.15;1.80;;;20.10;75.40;;;;;;5037553;28;20205;-75
2023/07/17 02:31:39;;;;;;;2.90;1.65;;;20.00;75.20;;;;;;5032459;28;20189;-76
2023/07/17 02:34:07;;;;;;;4.18;1.90;;;20.00;75.70;;;;;;5033541;28;20268;-76
2023/07/17 02:36:37;;;;;;;2.97;1.88;;;19.90;76.30;;;;;;5037911;28;20208;-76
2023/07/17 02:39:08;;;;;;;2.15;1.65;;;19.90;76.00;;;;;;5037774;28;20193;-73
2023/07/17 02:41:36;;;;;;;2.65;1.77;;;19.90;76.90;;;;;;5037505;28;20264;-76
2023/07/17 02:44:06;;;;;;;3.80;1.90;;;19.90;77.10;;;;;;5022004;28;20201;-73
2023/07/17 02:46:31;;;;;;;2.97;1.58;;;19.80;77.20;;;;;;5037392;28;20165;-78
2023/07/17 02:48:57;;;;;;;2.30;1.60;;;19.80;77.00;;;;;;5029554;28;20204;-75
2023/07/17 02:51:23;;;;;;;2.78;1.85;;;19.80;77.20;;;;;;5033542;28;20264;-76
2023/07/17 02:53:53;;;;;;;2.95;1.70;;;19.70;77.30;;;;;;5036076;28;20192;-75
2023/07/17 02:56:21;;;;;;;3.97;1.90;;;19.70;77.50;;;;;;5032137;28;20177;-71
2023/07/17 02:58:49;;;;;;;3.00;1.70;;;19.70;77.60;;;;;;5027566;28;20205;-76
2023/07/17 03:01:17;;;;;;;2.30;1.70;;;19.60;78.00;;;;;;5030540;28;20197;-76
2023/07/17 03:03:43;;;;;;;2.83;1.60;;;19.60;78.60;;;;;;5053832;28;20170;-75
2023/07/17 03:06:08;;;;;;;3.22;1.65;;;19.60;78.30;;;;;;5029228;28;20193;-76
2023/07/17 03:08:34;;;;;;;4.07;1.90;;;19.60;79.20;;;;;;5043356;28;20402;-75
2023/07/17 03:11:06;;;;;;;3.67;1.70;;;19.60;79.00;;;;;;5030966;28;20180;-75
2023/07/17 03:13:36;;;;;;;2.70;1.65;;;19.60;79.70;;;;;;5033410;28;20235;-75
2023/07/17 03:16:02;;;;;;;2.75;1.90;;;19.50;79.60;;;;;;5037261;28;20174;-74
2023/07/17 03:18:28;;;;;;;2.25;1.50;;;19.50;79.30;;;;;;5045071;28;20177;-76
2023/07/17 03:20:56;;;;;;;3.75;1.90;;;19.50;79.60;;;;;;5040105;28;20504;-76
2023/07/17 03:23:27;;;;;;;2.65;1.80;;;19.50;80.50;;;;;;5037687;28;20173;-74
2023/07/17 03:25:56;;;;;;;2.55;1.88;;;19.50;80.30;;;;;;5031613;28;20190;-76
2023/07/17 03:28:21;;;;;;;4.35;2.63;;;19.60;81.10;;;;;;5052873;28;20180;-75
2023/07/17 03:30:47;;;;;;;3.28;1.98;;;19.50;80.50;;;;;;5034161;28;20178;-76
2023/07/17 03:33:13;;;;;;;3.88;2.00;;;19.60;80.70;;;;;;5035279;28;20188;-76
2023/07/17 03:35:39;;;;;;;3.30;2.03;;;19.50;80.60;;;;;;5030374;28;20182;-76
2023/07/17 03:38:07;;;;;;;2.40;1.80;;;19.50;80.90;;;;;;5041865;28;20284;-73
2023/07/17 03:40:33;;;;;;;3.55;2.10;;;19.50;81.10;;;;;;5026455;28;20251;-76
2023/07/17 03:43:01;;;;;;;2.88;1.80;;;19.50;81.30;;;;;;5028178;28;20185;-76
2023/07/17 03:45:31;;;;;;;3.38;1.90;;;19.50;82.10;;;;;;5053028;28;20288;-75
2023/07/17 03:47:57;;;;;;;2.38;1.67;;;19.40;81.80;;;;;;5031001;28;20173;-75
2023/07/17 03:50:23;;;;;;;5.88;2.25;;;19.40;82.10;;;;;;5028673;28;20441;-75
2023/07/17 03:52:53;;;;;;;2.33;1.75;;;19.40;82.30;;;;;;5028878;28;20216;-76
2023/07/17 03:55:19;;;;;;;2.25;1.80;;;19.40;82.30;;;;;;5033772;28;20182;-76
2023/07/17 03:57:46;;;;;;;2.78;1.75;;;19.40;82.40;;;;;;5033849;28;20186;-73
2023/07/17 04:00:15;;;;;;;2.47;2.05;;;19.30;82.50;;;;;;5036222;28;20280;-77
2023/07/17 04:02:42;;;;;;;2.40;1.65;;;19.30;82.60;;;;;;5033801;28;20208;-76
2023/07/17 04:05:10;;;;;;;2.75;1.95;;;19.30;82.90;;;;;;5052356;28;20173;-76
2023/07/17 04:07:38;;;;;;;2.78;1.60;;;19.30;83.20;;;;;;5032555;28;20188;-75
2023/07/17 04:10:07;;;;;;;3.40;1.90;;;19.30;83.40;;;;;;5033082;28;20186;-76
2023/07/17 04:12:37;;;;;;;3.53;1.77;;;19.30;83.90;;;;;;5035006;28;20192;-75
2023/07/17 04:15:05;;;;;;;3.55;1.90;;;19.30;83.80;;;;;;5040159;28;20321;-75
2023/07/17 04:17:31;;;;;;;3.20;1.70;;;19.30;83.40;;;;;;5036991;28;20173;-75
2023/07/17 04:19:57;;;;;;;3.55;2.20;;;19.20;83.40;;;;;;5036482;28;20211;-75
2023/07/17 04:22:22;;;;;;;3.25;2.03;;;19.20;83.60;;;;;;5035189;28;21466;-75
2023/07/17 04:24:50;;;;;;;2.88;1.85;;;19.20;83.80;;;;;;5032712;28;20296;-75
2023/07/17 04:27:15;;;;;;;2.95;1.75;;;19.20;83.80;;;;;;5031931;28;20189;-69
2023/07/17 04:29:43;;;;;;;4.28;2.10;;;19.20;84.00;;;;;;5036722;28;20186;-75
2023/07/17 04:32:11;;;;;;;5.38;2.00;;;19.20;84.30;;;;;;5037917;28;20177;-75
2023/07/17 04:34:37;;;;;;;3.90;2.22;;;19.10;84.50;;;;;;5029662;28;20201;-74
2023/07/17 04:37:03;;;;;;;4.07;2.00;;;19.10;84.70;;;;;;5043020;28;20525;-76
2023/07/17 04:39:31;;;;;;;2.92;2.00;;;19.10;84.90;;;;;;5039779;28;20213;-74
2023/07/17 04:41:58;;;;;;;4.20;2.10;;;19.10;85.50;;;;;;5040440;28;20170;-77
2023/07/17 04:44:29;;;;;;;3.30;2.45;;;19.10;85.30;;;;;;5047800;28;20268;-76
2023/07/17 04:46:54;;;;;;;3.13;2.03;;;19.00;85.70;;;;;;5057592;28;20201;-76
2023/07/17 04:49:20;;;;;;;3.22;1.95;;;19.00;85.40;;;;;;5031575;28;20196;-75
2023/07/17 04:51:48;;;;;;;3.20;2.17;;;19.00;85.70;;;;;;5039587;28;20189;-76
2023/07/17 04:54:13;;;;;;;3.38;1.88;;;19.00;85.90;;;;;;5039325;28;20531;-73
2023/07/17 04:56:39;;;;;;;4.78;2.00;;;19.00;85.90;;;;;;5039037;28;20185;-73
2023/07/17 04:59:04;;;;;;;3.40;2.25;;;19.00;86.10;;;;;;5038732;28;20209;-75
2023/07/17 05:01:32;;;;;;;3.90;2.30;;;19.00;86.30;;;;;;5053991;28;20224;-75
2023/07/17 05:03:58;;;;;;;3.80;2.05;;;19.00;86.30;;;;;;5033649;28;20169;-75
2023/07/17 05:06:23;;;;;;;4.32;2.00;;;19.00;86.40;;;;;;5027412;28;20231;-77
2023/07/17 05:08:51;;;;;;;4.10;1.95;;;19.00;86.70;;;;;;5039676;28;20212;-76
2023/07/17 05:11:17;;;;;;;2.63;2.20;;;19.10;86.70;;;;;;5054710;28;20177;-71
2023/07/17 05:13:45;;;;;;;3.55;2.10;;;19.10;86.70;;;;;;5038035;28;20260;-75
2023/07/17 05:16:10;;;;;;;2.80;1.83;;;19.10;86.70;;;;;;5039606;28;20172;-76
2023/07/17 05:18:36;;;;;;;4.88;2.10;;;19.10;87.00;;;;;;5036873;28;20179;-76
2023/07/17 05:21:02;;;;;;;3.08;1.85;;;19.20;87.10;;;;;;5026591;28;20201;-76
2023/07/17 05:23:27;;;;;;;5.55;2.10;;;19.20;87.20;;;;;;5037448;28;20185;-75
2023/07/17 05:25:58;;;;;;;7.05;2.42;;;19.20;87.30;;;;;;5039102;28;20186;-75
2023/07/17 05:28:24;;;;;;;5.28;2.22;;;19.30;87.70;;;;;;5038778;28;20193;-76
2023/07/17 05:30:54;;;;;;;6.03;1.95;;;19.30;87.40;;;;;;5039138;28;20178;-76
2023/07/17 05:33:21;;;;;;;3.10;2.05;;;19.30;87.90;;;;;;5039336;28;20284;-75
2023/07/17 05:35:47;;;;;;;3.63;1.92;;;19.40;87.80;;;;;;5030113;28;20178;-75
2023/07/17 05:38:12;;;;;;;4.03;2.03;;;19.40;88.10;;;;;;5052301;28;20196;-75
2023/07/17 05:40:39;;;;;;;2.95;1.75;;;19.50;88.40;;;;;;5038700;28;20233;-75
2023/07/17 05:43:05;;;;;;;3.08;1.83;;;19.50;88.50;;;;;;5038789;28;20177;-75
2023/07/17 05:45:33;;;;;;;4.70;2.17;;;19.60;88.80;;;;;;5037666;28;20270;-71
2023/07/17 05:48:02;;;;;;;2.90;1.83;;;19.70;89.10;;;;;;5035029;28;20287;-77
2023/07/17 05:50:28;;;;;;;3.63;1.90;;;19.80;88.90;;;;;;5037354;28;20177;-76
2023/07/17 05:52:53;;;;;;;2.85;1.55;;;19.90;88.80;;;;;;5038455;28;20191;-77
2023/07/17 05:55:19;;;;;;;3.22;1.55;;;19.90;88.70;;;;;;5038767;28;20269;-76
2023/07/17 05:57:45;;;;;;;1.92;1.70;;;20.00;88.80;;;;;;5051212;28;20202;-76
2023/07/17 06:00:18;;;;;;;1.92;1.38;;;20.00;88.70;;;;;;5050147;28;20264;-72
2023/07/17 06:02:44;;;;;;;2.40;1.75;;;20.10;89.00;;;;;;5050066;28;20182;-71
2023/07/17 06:05:12;;;;;;;3.08;1.70;;;20.10;88.70;;;;;;5037503;28;20180;-75
2023/07/17 06:07:40;;;;;;;2.60;1.50;;;20.10;88.60;;;;;;5034649;28;20189;-75
2023/07/17 06:10:07;;;;;;;2.30;1.05;;;20.20;88.60;;;;;;5032075;28;20264;-73
2023/07/17 06:12:33;;;;;;;5.05;1.50;;;20.20;88.50;;;;;;5028544;28;20177;-73
2023/07/17 06:15:01;;;;;;;2.00;1.42;;;20.30;88.70;;;;;;5036758;28;20193;-77
2023/07/17 06:17:31;;;;;;;4.60;1.60;;;20.30;88.50;;;;;;5046925;28;20197;-77
2023/07/17 06:19:57;;;;;;;2.60;1.40;;;20.30;88.80;;;;;;5032115;28;20208;-75
2023/07/17 06:22:25;;;;;;;2.47;1.50;;;20.40;88.90;;;;;;5038312;28;20177;-77
2023/07/17 06:24:51;;;;;;;1.88;1.58;;;20.50;89.00;;;;;;5035978;28;20170;-77
2023/07/17 06:27:21;;;;;;;2.42;1.35;;;20.60;89.00;;;;;;5045282;28;20181;-76
2023/07/17 06:29:49;;;;;;;3.08;1.50;;;20.70;89.10;;;;;;5037944;28;20231;-77
2023/07/17 06:32:17;;;;;;;2.35;1.50;;;20.70;88.80;;;;;;5037900;28;20181;-73
2023/07/17 06:34:43;;;;;;;2.42;1.40;;;20.70;88.50;;;;;;5041369;28;20192;-78
2023/07/17 06:37:08;;;;;;;2.13;1.42;;;20.80;88.40;;;;;;5035612;28;20197;-78
2023/07/17 06:39:34;;;;;;;2.17;1.40;;;20.80;88.30;;;;;;5035843;28;20205;-74
2023/07/17 06:42:00;;;;;;;3.03;1.50;;;20.80;88.00;;;;;;5038181;28;20177;-78
2023/07/17 06:44:25;;;;;;;2.35;1.52;;;20.80;88.00;;;;;;5038119;28;20173;-71
2023/07/17 06:46:51;;;;;;;2.25;1.35;;;20.90;88.00;;;;;;5055460;28;20227;-78
2023/07/17 06:49:19;;;;;;;2.08;1.52;;;20.90;87.90;;;;;;5037221;28;20217;-72
2023/07/17 06:51:44;;;;;;;2.85;1.40;;;20.90;87.20;;;;;;5032996;28;20250;-72
2023/07/17 06:54:10;;;;;;;3.60;1.20;;;20.90;87.30;;;;;;5035081;28;20272;-72
2023/07/17 06:56:35;;;;;;;2.92;1.55;;;21.00;87.50;;;;;;5024332;28;20201;-71
2023/07/17 06:59:03;;;;;;;2.35;1.42;;;21.00;87.20;;;;;;5037253;28;20201;-70
2023/07/17 07:01:31;;;;;;;1.50;1.40;;;21.00;86.70;;;;;;5037925;28;20177;-73
2023/07/17 07:03:59;;;;;;;2.05;1.40;;;21.00;86.60;;;;;;5048213;28;20177;-71
2023/07/17 07:06:25;;;;;;;2.35;1.40;;;20.90;86.30;;;;;;5043209;28;20291;-70
2023/07/17 07:08:50;;;;;;;2.28;1.45;;;20.90;86.20;;;;;;5036843;28;20231;-72
2023/07/17 07:11:18;;;;;;;2.35;1.40;;;20.90;86.30;;;;;;5033717;28;20185;-70
2023/07/17 07:13:44;;;;;;;2.25;1.80;;;20.80;86.30;;;;;;5043247;28;20268;-72
2023/07/17 07:16:10;;;;;;;3.75;1.85;;;20.80;86.30;;;;;;5037434;28;20209;-77
2023/07/17 07:18:36;;;;;;;2.17;1.50;;;20.80;86.30;;;;;;5034204;28;20209;-75
2023/07/17 07:21:02;;;;;;;2.20;1.60;;;20.80;86.30;;;;;;5034492;28;20241;-74
2023/07/17 07:23:27;;;;;;;2.42;1.80;;;20.80;86.30;;;;;;5030350;28;20177;-74
2023/07/17 07:25:53;;;;;;;2.50;1.58;;;20.80;86.20;;;;;;5034033;28;20178;-74
2023/07/17 07:28:19;;;;;;;3.92;1.60;;;20.80;86.00;;;;;;5048856;28;20194;-74
2023/07/17 07:30:45;;;;;;;3.03;1.80;;;20.80;86.10;;;;;;5017673;28;20224;-72
2023/07/17 07:33:10;;;;;;;3.15;1.70;;;20.80;85.80;;;;;;5028491;28;20182;-75
2023/07/17 07:35:36;;;;;;;2.53;1.67;;;20.80;85.50;;;;;;5019320;28;20186;-74
2023/07/17 07:38:04;;;;;;;2.38;1.70;;;20.90;85.60;;;;;;5037518;28;20188;-75
2023/07/17 07:40:30;;;;;;;2.67;1.60;;;20.90;85.50;;;;;;5036489;28;20215;-74
2023/07/17 07:42:58;;;;;;;2.95;1.80;;;20.90;85.60;;;;;;5037419;28;20170;-73
2023/07/17 07:45:23;;;;;;;3.28;2.13;;;21.00;85.50;;;;;;5036016;28;20169;-72
2023/07/17 07:47:49;;;;;;;3.33;1.85;;;21.00;84.80;;;;;;5030556;28;20284;-76
2023/07/17 07:50:14;;;;;;;3.58;1.80;;;21.10;84.50;;;;;;5034087;28;20204;-73
2023/07/17 07:52:40;;;;;;;2.40;1.90;;;21.10;84.50;;;;;;5036816;28;20177;-74
2023/07/17 07:55:06;;;;;;;6.40;1.70;;;21.20;84.30;;;;;;5037853;28;20212;-74
2023/07/17 07:57:32;;;;;;;2.95;1.70;;;21.20;84.20;;;;;;5028119;28;20194;-74
2023/07/17 07:59:58;;;;;;;2.50;1.70;;;21.30;84.70;;;;;;5036005;28;20251;-74
2023/07/17 08:02:24;;;;;;;2.40;1.80;;;21.30;84.00;;;;;;5028218;28;20174;-72
2023/07/17 08:04:50;;;;;;;3.88;2.20;;;21.40;84.00;;;;;;5033454;28;20202;-74
2023/07/17 08:07:20;;;;;;;2.88;1.95;;;21.40;83.60;;;;;;5035443;28;20194;-73
2023/07/17 08:09:48;;;;;;;3.05;2.10;;;21.50;84.40;;;;;;5049298;28;20189;-74
2023/07/17 08:12:14;;;;;;;2.88;1.88;;;21.50;83.50;;;;;;5040313;28;20177;-74
2023/07/17 08:14:44;;;;;;;3.03;2.10;;;21.60;83.60;;;;;;5034175;28;20227;-74
2023/07/17 08:17:15;;;;;;;4.03;2.58;;;21.70;83.50;;;;;;5022974;28;20176;-73
2023/07/17 08:19:40;;;;;;;3.00;2.35;;;21.80;83.00;;;;;;5040792;28;20193;-70
2023/07/17 08:22:08;;;;;;;4.50;2.58;;;21.80;82.80;;;;;;5040681;28;20230;-74
2023/07/17 08:24:36;;;;;;;3.75;2.22;;;21.90;82.10;;;;;;5039740;28;20256;-71
2023/07/17 08:27:05;;;;;;;3.38;2.20;;;21.90;81.90;;;;;;5022080;28;20194;-73
2023/07/17 08:29:33;;;;;;;3.45;2.10;;;21.90;81.80;;;;;;5056904;28;20185;-73
2023/07/17 08:31:59;;;;;;;4.05;2.78;;;22.00;82.10;;;;;;5040181;28;20177;-73
2023/07/17 08:34:29;;;;;;;3.53;2.42;;;22.00;81.30;;;;;;5056360;28;20204;-74
2023/07/17 08:36:57;;;;;;;3.45;2.20;;;22.10;80.80;;;;;;5038849;28;20327;-73
2023/07/17 08:39:25;;;;;;;4.28;2.05;;;22.10;80.90;;;;;;5039237;28;20198;-70
2023/07/17 08:41:53;;;;;;;3.33;2.10;;;22.20;81.00;;;;;;5039823;28;20198;-72
2023/07/17 08:44:19;;;;;;;3.08;2.20;;;22.30;80.80;;;;;;5038763;28;20231;-74
2023/07/17 08:46:47;;;;;;;4.57;2.15;;;22.30;80.60;;;;;;5054284;28;20178;-72
2023/07/17 08:49:18;;;;;;;3.13;2.15;;;22.40;80.60;;;;;;5021576;28;20288;-73
2023/07/17 08:51:46;;;;;;;3.65;2.10;;;22.50;80.90;;;;;;5045315;28;20268;-72
2023/07/17 08:54:14;;;;;;;2.95;2.13;;;22.50;79.90;;;;;;5039720;28;20197;-72
2023/07/17 08:56:44;;;;;;;3.17;1.95;;;22.60;79.90;;;;;;5039296;28;20185;-72
2023/07/17 08:59:10;;;;;;;3.90;2.10;;;22.70;80.00;;;;;;5056755;28;20204;-73
2023/07/17 09:01:42;;;;;;;3.17;2.15;;;22.80;80.30;;;;;;5055418;28;20188;-72
2023/07/17 09:04:11;;;;;;;3.33;2.10;;;22.90;80.00;;;;;;5027815;28;20170;-75
2023/07/17 09:06:37;;;;;;;3.97;1.85;;;23.00;79.80;;;;;;5036208;28;20174;-75
2023/07/17 09:09:03;;;;;;;3.28;1.85;;;23.20;79.70;;;;;;5034036;28;20222;-76
2023/07/17 09:11:28;;;;;;;3.30;2.05;;;23.30;79.50;;;;;;5037603;28;20169;-75
2023/07/17 09:13:54;;;;;;;3.08;2.00;;;23.30;79.10;;;;;;5039280;28;20192;-73
2023/07/17 09:16:24;;;;;;;2.38;1.88;;;23.40;78.50;;;;;;5036186;28;20178;-75
2023/07/17 09:18:52;;;;;;;4.07;2.38;;;23.40;78.20;;;;;;5033617;28;20205;-75
2023/07/17 09:21:24;;;;;;;2.50;2.10;;;23.50;78.30;;;;;;5039487;28;20211;-75
2023/07/17 09:23:55;;;;;;;4.10;2.30;;;23.60;77.90;;;;;;5031433;28;20181;-74
2023/07/17 09:26:22;;;;;;;2.65;2.17;;;23.60;77.30;;;;;;5020969;28;20172;-74
2023/07/17 09:28:55;;;;;;;3.67;2.10;;;23.60;76.90;;;;;;5039066;28;20342;-75
2023/07/17 09:31:25;;;;;;;3.08;2.08;;;23.70;76.80;;;;;;5036587;28;20188;-72
2023/07/17 09:33:54;;;;;;;3.50;2.28;;;23.70;77.00;;;;;;5038484;28;20193;-74
2023/07/17 09:36:21;;;;;;;4.25;2.40;;;23.80;77.20;;;;;;5036721;28;20216;-74
2023/07/17 09:38:56;;;;;;;2.80;1.88;;;23.90;76.70;;;;;;5046600;28;20177;-72
2023/07/17 09:41:23;;;;;;;4.10;2.00;;;24.00;75.70;;;;;;5049851;28;20205;-70
2023/07/17 09:43:59;;;;;;;2.85;2.10;;;24.10;76.30;;;;;;5054892;28;20304;-76
2023/07/17 09:46:29;;;;;;;2.90;2.10;;;24.10;76.00;;;;;;5039165;28;20409;-64
2023/07/17 09:48:56;;;;;;;2.88;2.05;;;24.20;75.50;;;;;;5036768;28;20449;-62
2023/07/17 09:51:25;;;;;;;3.88;2.30;;;24.30;76.50;;;;;;5041880;28;20220;-62
2023/07/17 09:53:51;;;;;;;2.70;1.92;;;24.40;76.30;;;;;;5039078;28;20247;-64
2023/07/17 09:56:20;;;;;;;2.80;2.05;;;24.50;76.10;;;;;;5038939;28;20173;-61
2023/07/17 09:58:51;;;;;;;3.17;2.42;;;24.50;75.10;;;;;;5035481;28;20185;-62
2023/07/17 10:01:25;;;;;;;3.60;1.98;;;24.50;74.90;;;;;;5035325;28;20217;-62
2023/07/17 10:03:53;;;;;;;3.33;2.13;;;24.50;74.50;;;;;;5035270;28;20177;-62
2023/07/17 10:06:20;;;;;;;2.83;2.00;;;24.50;74.40;;;;;;5038148;28;20174;-62
2023/07/17 10:08:50;;;;;;;3.75;2.08;;;24.50;74.40;;;;;;5038345;28;20189;-63
2023/07/17 10:11:19;;;;;;;3.42;2.00;;;24.60;73.30;;;;;;5025446;28;20180;-63
2023/07/17 10:13:49;;;;;;;2.85;2.17;;;24.60;72.60;;;;;;5038470;28;20197;-61
2023/07/17 10:16:16;;;;;;;4.13;1.75;;;24.60;73.10;;;;;;5034336;28;20181;-63
2023/07/17 10:18:55;;;;;;;3.17;1.90;;;24.60;73.50;;;;;;5034686;28;20173;-62
2023/07/17 10:21:22;;;;;;;4.03;1.92;;;24.70;73.20;;;;;;5031590;28;20205;-62
2023/07/17 10:23:52;;;;;;;3.10;2.25;;;24.70;74.10;;;;;;5032803;28;20188;-63
2023/07/17 10:26:20;;;;;;;3.28;2.10;;;24.80;73.60;;;;;;5038261;28;20173;-61
2023/07/17 10:28:55;;;;;;;3.90;2.20;;;25.00;73.70;;;;;;5037380;28;20173;-63
2023/07/17 10:31:23;;;;;;;2.90;1.92;;;25.20;73.00;;;;;;5037617;28;20181;-63
2023/07/17 10:34:02;;;;;;;4.53;1.88;;;25.30;72.70;;;;;;5037232;28;20197;-64
2023/07/17 10:37:00;;;;;;;3.47;2.22;;;25.40;71.50;;;;;;5024152;28;20201;-63
2023/07/17 10:39:26;;;;;;;2.83;2.10;;;25.50;71.00;;;;;;5026644;28;20201;-63
2023/07/17 10:41:51;;;;;;;3.25;2.10;;;25.50;71.00;;;;;;5053829;28;20180;-64
2023/07/17 10:44:21;;;;;;;3.50;2.10;;;25.50;71.20;;;;;;5038207;28;20177;-63
2023/07/17 10:46:47;;;;;;;3.42;2.10;;;25.60;70.80;;;;;;5037156;28;20204;-63
2023/07/17 10:49:17;;;;;;;4.47;1.63;;;25.60;71.10;;;;;;5030184;28;20193;-64
2023/07/17 10:51:43;;;;;;;2.60;1.85;;;25.70;70.00;;;;;;5030652;28;20177;-64
2023/07/17 10:54:12;;;;;;;3.97;2.15;;;25.80;71.40;;;;;;5048331;28;20216;-64
2023/07/17 10:56:38;;;;;;;4.00;1.90;;;25.80;70.20;;;;;;5037636;28;20181;-60
2023/07/17 10:59:04;;;;;;;2.95;2.03;;;25.80;69.80;;;;;;5037555;28;20177;-63
2023/07/17 11:01:32;;;;;;;2.90;2.03;;;25.80;69.30;;;;;;5037060;28;20177;-63
2023/07/17 11:04:00;;;;;;;2.40;1.98;;;25.80;69.10;;;;;;5036051;28;20169;-61
2023/07/17 11:06:27;;;;;;;2.78;1.77;;;25.80;68.90;;;;;;5036249;28;20251;-63
2023/07/17 11:08:54;;;;;;;2.42;1.65;;;25.80;69.10;;;;;;5036685;28;20254;-63
2023/07/17 11:11:20;;;;;;;2.63;1.90;;;25.90;68.70;;;;;;5035600;28;20230;-63
2023/07/17 11:13:46;;;;;;;3.33;1.85;;;25.90;68.90;;;;;;5024413;28;20174;-64
2023/07/17 11:16:12;;;;;;;2.63;1.83;;;26.10;69.70;;;;;;5047133;28;20187;-64
2023/07/17 11:18:42;;;;;;;3.53;2.15;;;26.20;69.20;;;;;;5053873;28;20169;-64
2023/07/17 11:21:10;;;;;;;3.10;2.00;;;26.30;67.90;;;;;;5029819;28;20258;-64
2023/07/17 11:23:44;;;;;;;3.25;2.08;;;26.40;67.20;;;;;;5037246;28;20184;-63
2023/07/17 11:26:17;;;;;;;3.28;2.20;;;26.30;66.30;;;;;;5033465;28;20201;-63
2023/07/17 11:28:44;;;;;;;7.47;3.97;;;26.30;66.80;;;;;;5036348;28;20251;-64
2023/07/17 11:31:22;;;;;;;3.75;2.90;;;26.20;67.10;;;;;;5036379;28;20216;-63
2023/07/17 11:33:57;;;;;;;5.18;2.25;;;26.20;66.70;;;;;;5031281;28;20207;-64
2023/07/17 11:36:25;;;;;;;2.95;2.17;;;26.10;66.10;;;;;;5053096;28;20192;-64
2023/07/17 11:39:00;;;;;;;3.70;2.33;;;26.10;66.60;;;;;;5040534;28;20178;-63
2023/07/17 11:41:39;;;;;;;3.65;2.20;;;26.00;65.30;;;;;;5050249;28;20176;-64
2023/07/17 11:44:07;;;;;;;3.13;1.95;;;26.00;66.40;;;;;;5040880;28;20240;-64
2023/07/17 11:46:33;;;;;;;2.75;2.13;;;26.10;67.10;;;;;;5040887;28;20191;-63
2023/07/17 11:48:59;;;;;;;2.83;2.00;;;26.20;67.80;;;;;;5041077;28;20195;-64
2023/07/17 11:51:25;;;;;;;3.03;2.25;;;26.40;68.50;;;;;;5038682;28;20252;-61
2023/07/17 11:53:55;;;;;;;3.58;2.42;;;26.60;68.30;;;;;;5057811;28;20292;-64
2023/07/17 11:56:32;;;;;;;3.67;2.70;;;26.80;65.80;;;;;;5039096;28;20224;-64
2023/07/17 11:58:57;;;;;;;4.20;1.90;;;26.80;65.20;;;;;;5041006;28;20196;-65
2023/07/17 12:01:23;;;;;;;4.60;2.38;;;26.80;64.70;;;;;;5036318;28;20194;-63
2023/07/17 12:03:49;;;;;;;2.88;2.00;;;26.70;63.80;;;;;;5040857;28;20189;-64
2023/07/17 12:06:14;;;;;;;4.13;2.25;;;26.60;63.20;;;;;;5037524;28;20181;-63
2023/07/17 12:08:41;;;;;;;3.17;2.15;;;26.60;63.10;;;;;;5021360;28;20202;-64
2023/07/17 12:11:09;;;;;;;2.78;2.10;;;26.50;62.70;;;;;;5042083;28;20182;-64
2023/07/17 12:13:35;;;;;;;2.83;1.98;;;26.40;62.60;;;;;;5028737;28;20322;-63
2023/07/17 12:16:00;;;;;;;3.75;2.28;;;26.30;63.60;;;;;;5046894;28;20260;-64
2023/07/17 12:18:28;;;;;;;2.80;2.05;;;26.40;63.80;;;;;;5039224;28;20173;-60
2023/07/17 12:20:54;;;;;;;4.97;1.92;;;26.60;63.70;;;;;;5040229;28;20240;-63
2023/07/17 12:23:23;;;;;;;2.92;1.98;;;26.70;64.00;;;;;;5033265;28;20208;-64
2023/07/17 12:25:51;;;;;;;1.92;1.35;;;26.90;63.80;;;;;;5057164;28;20185;-64
2023/07/17 12:28:19;;;;;;;2.42;1.50;;;27.20;64.40;;;;;;5038331;28;20178;-64
2023/07/17 12:30:47;;;;;;;1.88;1.60;;;27.40;63.40;;;;;;5040336;28;20327;-61
2023/07/17 12:33:14;;;;;;;2.10;1.77;;;27.70;63.60;;;;;;5022045;28;20225;-64
2023/07/17 12:35:40;;;;;;;3.75;1.88;;;27.80;62.80;;;;;;5047778;28;20181;-64
2023/07/17 12:38:11;;;;;;;2.25;1.80;;;27.90;61.80;;;;;;5022328;28;20245;-64
2023/07/17 12:40:36;;;;;;;2.13;1.40;;;28.00;60.40;;;;;;5039731;28;20213;-64
2023/07/17 12:43:02;;;;;;;2.35;1.77;;;27.90;60.30;;;;;;5038571;28;20243;-65
2023/07/17 12:45:28;;;;;;;2.88;1.90;;;27.80;59.90;;;;;;5039108;28;20165;-63
2023/07/17 12:47:58;;;;;;;2.63;1.90;;;27.70;59.00;;;;;;5035747;28;20181;-64
2023/07/17 12:50:24;;;;;;;3.08;2.05;;;27.60;58.70;;;;;;5038220;28;20186;-64